sensor_id;sensor_type;location;lat;lon;timestamp;pressure;altitude;pressure_sealevel;temperature;humidity
11692;BME280;33659;42.672;23.354;2023-05-24T00:01:12;85070.84;;;17.28;61.69
11692;BME280;33659;42.672;23.354;2023-05-24T00:03:39;85065.91;;;17.37;61.72
11692;BME280;33659;42.672;23.354;2023-05-24T00:06:06;85068.72;;;17.41;61.03
11692;BME280;33659;42.672;23.354;2023-05-24T00:08:33;85076.69;;;17.43;60.49
11692;BME280;33659;42.672;23.354;2023-05-24T00:11:00;85072.19;;;17.45;60.29
11692;BME280;33659;42.672;23.354;2023-05-24T00:13:26;85074.22;;;17.47;60.22
11692;BME280;33659;42.672;23.354;2023-05-24T00:15:53;85075.50;;;17.46;60.07
11692;BME280;33659;42.672;23.354;2023-05-24T00:18:21;85070.66;;;17.40;60.34
11692;BME280;33659;42.672;23.354;2023-05-24T00:20:48;85061.41;;;17.39;60.34
11692;BME280;33659;42.672;23.354;2023-05-24T00:23:16;85062.59;;;17.36;60.64
11692;BME280;33659;42.672;23.354;2023-05-24T00:25:42;85067.19;;;17.36;60.79
11692;BME280;33659;42.672;23.354;2023-05-24T00:28:09;85066.59;;;17.37;60.24
11692;BME280;33659;42.672;23.354;2023-05-24T00:30:36;85067.19;;;17.36;60.51
11692;BME280;33659;42.672;23.354;2023-05-24T00:33:03;85065.56;;;17.28;60.69
11692;BME280;33659;42.672;23.354;2023-05-24T00:35:31;85072.28;;;17.31;60.69
11692;BME280;33659;42.672;23.354;2023-05-24T00:37:57;85062.41;;;17.32;60.55
11692;BME280;33659;42.672;23.354;2023-05-24T00:40:24;85060.38;;;17.30;60.90
11692;BME280;33659;42.672;23.354;2023-05-24T00:42:51;85061.06;;;17.31;61.14
11692;BME280;33659;42.672;23.354;2023-05-24T00:45:18;85064.56;;;17.36;61.11
11692;BME280;33659;42.672;23.354;2023-05-24T00:47:45;85060.03;;;17.38;60.81
11692;BME280;33659;42.672;23.354;2023-05-24T00:50:12;85064.56;;;17.36;60.89
11692;BME280;33659;42.672;23.354;2023-05-24T00:52:42;85067.25;;;17.38;61.15
11692;BME280;33659;42.672;23.354;2023-05-24T00:55:10;85066.06;;;17.41;61.02
11692;BME280;33659;42.672;23.354;2023-05-24T00:57:37;85065.31;;;17.38;61.11
11692;BME280;33659;42.672;23.354;2023-05-24T01:00:05;85064.06;;;17.39;60.70
11692;BME280;33659;42.672;23.354;2023-05-24T01:02:33;85060.03;;;17.38;60.74
11692;BME280;33659;42.672;23.354;2023-05-24T01:05:00;85063.88;;;17.35;60.93
11692;BME280;33659;42.672;23.354;2023-05-24T01:07:35;85058.44;;;17.31;60.84
11692;BME280;33659;42.672;23.354;2023-05-24T01:10:12;85054.97;;;17.26;60.44
11692;BME280;33659;42.672;23.354;2023-05-24T01:12:51;85056.81;;;17.24;60.56
11692;BME280;33659;42.672;23.354;2023-05-24T01:15:24;85059.53;;;17.26;60.54
11692;BME280;33659;42.672;23.354;2023-05-24T01:18:00;85065.56;;;17.28;60.49
11692;BME280;33659;42.672;23.354;2023-05-24T01:20:32;85068.22;;;17.28;60.50
11692;BME280;33659;42.672;23.354;2023-05-24T01:23:16;85061.66;;;17.29;60.50
11692;BME280;33659;42.672;23.354;2023-05-24T01:26:13;85068.22;;;17.28;60.43
11692;BME280;33659;42.672;23.354;2023-05-24T01:28:43;85069.56;;;17.29;60.34
11692;BME280;33659;42.672;23.354;2023-05-24T01:31:13;85074.66;;;17.25;60.30
11692;BME280;33659;42.672;23.354;2023-05-24T01:33:41;85068.56;;;17.21;60.44
11692;BME280;33659;42.672;23.354;2023-05-24T01:36:08;85064.47;;;17.18;60.59
11692;BME280;33659;42.672;23.354;2023-05-24T01:38:35;85064.56;;;17.20;60.63
11692;BME280;33659;42.672;23.354;2023-05-24T01:41:08;85040.13;;;17.01;60.48
11692;BME280;33659;42.672;23.354;2023-05-24T01:43:38;85067.09;;;17.18;60.62
11692;BME280;33659;42.672;23.354;2023-05-24T01:46:14;85058.38;;;17.13;60.44
11692;BME280;33659;42.672;23.354;2023-05-24T01:48:51;85053.63;;;16.94;60.72
11692;BME280;33659;42.672;23.354;2023-05-24T01:51:22;85049.59;;;16.93;60.99
11692;BME280;33659;42.672;23.354;2023-05-24T01:53:51;85050.88;;;16.92;61.09
11692;BME280;33659;42.672;23.354;2023-05-24T01:56:19;85049.53;;;16.91;61.21
11692;BME280;33659;42.672;23.354;2023-05-24T01:58:46;85044.00;;;16.85;61.53
11692;BME280;33659;42.672;23.354;2023-05-24T02:01:18;85039.84;;;16.79;61.46
11692;BME280;33659;42.672;23.354;2023-05-24T02:03:45;85044.16;;;16.73;61.47
11692;BME280;33659;42.672;23.354;2023-05-24T02:06:12;85032.53;;;16.62;62.44
11692;BME280;33659;42.672;23.354;2023-05-24T02:08:39;85023.75;;;16.42;63.08
11692;BME280;33659;42.672;23.354;2023-05-24T02:11:06;85011.84;;;16.25;63.35
11692;BME280;33659;42.672;23.354;2023-05-24T02:13:32;85011.22;;;16.11;63.99
11692;BME280;33659;42.672;23.354;2023-05-24T02:15:59;84998.13;;;15.97;64.62
11692;BME280;33659;42.672;23.354;2023-05-24T02:18:27;84994.09;;;15.80;65.29
11692;BME280;33659;42.672;23.354;2023-05-24T02:20:59;84983.63;;;15.66;66.12
11692;BME280;33659;42.672;23.354;2023-05-24T02:23:25;84981.69;;;15.53;66.43
11692;BME280;33659;42.672;23.354;2023-05-24T02:25:52;84957.16;;;15.33;66.70
11692;BME280;33659;42.672;23.354;2023-05-24T02:28:19;84951.91;;;15.19;67.56
11692;BME280;33659;42.672;23.354;2023-05-24T02:30:45;84979.63;;;15.08;68.28
11692;BME280;33659;42.672;23.354;2023-05-24T02:33:12;84980.78;;;15.05;68.74
11692;BME280;33659;42.672;23.354;2023-05-24T02:35:40;84983.59;;;15.09;68.52
11692;BME280;33659;42.672;23.354;2023-05-24T02:38:07;84952.41;;;15.15;68.46
11692;BME280;33659;42.672;23.354;2023-05-24T02:40:34;84964.81;;;15.29;68.12
11692;BME280;33659;42.672;23.354;2023-05-24T02:43:00;84970.44;;;15.37;67.22
11692;BME280;33659;42.672;23.354;2023-05-24T02:45:27;84965.88;;;15.37;66.74
11692;BME280;33659;42.672;23.354;2023-05-24T02:47:54;84961.81;;;15.34;66.90
11692;BME280;33659;42.672;23.354;2023-05-24T02:50:21;84960.94;;;15.30;67.22
11692;BME280;33659;42.672;23.354;2023-05-24T02:52:49;84965.09;;;15.35;67.73
11692;BME280;33659;42.672;23.354;2023-05-24T02:55:15;84975.66;;;15.51;67.43
11692;BME280;33659;42.672;23.354;2023-05-24T02:57:42;84978.09;;;15.60;67.12
11692;BME280;33659;42.672;23.354;2023-05-24T03:00:10;84977.13;;;15.67;66.44
11692;BME280;33659;42.672;23.354;2023-05-24T03:02:37;84975.25;;;15.70;65.99
11692;BME280;33659;42.672;23.354;2023-05-24T03:05:05;84972.25;;;15.62;66.04
11692;BME280;33659;42.672;23.354;2023-05-24T03:07:32;84969.56;;;15.46;66.40
11692;BME280;33659;42.672;23.354;2023-05-24T03:10:00;84976.25;;;15.49;67.33
11692;BME280;33659;42.672;23.354;2023-05-24T03:12:27;84984.41;;;15.55;67.70
11692;BME280;33659;42.672;23.354;2023-05-24T03:14:54;84991.41;;;15.64;67.45
11692;BME280;33659;42.672;23.354;2023-05-24T03:17:20;85001.97;;;15.80;66.89
11692;BME280;33659;42.672;23.354;2023-05-24T03:19:47;85015.06;;;15.94;66.61
11692;BME280;33659;42.672;23.354;2023-05-24T03:22:14;85014.16;;;16.03;66.07
11692;BME280;33659;42.672;23.354;2023-05-24T03:24:41;85016.06;;;16.16;65.50
11692;BME280;33659;42.672;23.354;2023-05-24T03:27:09;85030.50;;;16.31;65.08
11692;BME280;33659;42.672;23.354;2023-05-24T03:29:35;85037.59;;;16.42;64.71
11692;BME280;33659;42.672;23.354;2023-05-24T03:32:02;85043.28;;;16.52;64.31
11692;BME280;33659;42.672;23.354;2023-05-24T03:34:29;85046.69;;;16.55;63.66
11692;BME280;33659;42.672;23.354;2023-05-24T03:36:56;85043.53;;;16.59;63.24
11692;BME280;33659;42.672;23.354;2023-05-24T03:39:23;85046.75;;;16.57;63.09
11692;BME280;33659;42.672;23.354;2023-05-24T03:41:49;85050.00;;;16.56;62.68
11692;BME280;33659;42.672;23.354;2023-05-24T03:44:17;85045.22;;;16.52;62.63
11692;BME280;33659;42.672;23.354;2023-05-24T03:46:44;85052.38;;;16.65;62.60
11692;BME280;33659;42.672;23.354;2023-05-24T03:49:11;85061.41;;;16.76;63.16
11692;BME280;33659;42.672;23.354;2023-05-24T03:51:37;85059.72;;;16.83;63.13
11692;BME280;33659;42.672;23.354;2023-05-24T03:54:04;85058.63;;;16.88;63.29
11692;BME280;33659;42.672;23.354;2023-05-24T03:56:31;85063.38;;;16.91;62.86
11692;BME280;33659;42.672;23.354;2023-05-24T03:58:58;85072.88;;;16.98;62.21
11692;BME280;33659;42.672;23.354;2023-05-24T04:01:29;85069.81;;;17.04;62.13
11692;BME280;33659;42.672;23.354;2023-05-24T04:03:56;85073.81;;;17.05;61.89
11692;BME280;33659;42.672;23.354;2023-05-24T04:06:23;85076.53;;;17.07;62.10
11692;BME280;33659;42.672;23.354;2023-05-24T04:08:53;85068.72;;;17.09;62.18
11692;BME280;33659;42.672;23.354;2023-05-24T04:11:20;85076.88;;;17.15;61.98
11692;BME280;33659;42.672;23.354;2023-05-24T04:13:47;85083.75;;;17.22;61.91
11692;BME280;33659;42.672;23.354;2023-05-24T04:16:14;85085.84;;;17.26;61.72
11692;BME280;33659;42.672;23.354;2023-05-24T04:18:43;85091.97;;;17.30;61.79
11692;BME280;33659;42.672;23.354;2023-05-24T04:21:10;85082.91;;;17.33;61.67
11692;BME280;33659;42.672;23.354;2023-05-24T04:23:37;85097.41;;;17.35;61.64
11692;BME280;33659;42.672;23.354;2023-05-24T04:26:04;85090.69;;;17.47;61.38
11692;BME280;33659;42.672;23.354;2023-05-24T04:28:31;85100.81;;;17.53;61.43
11692;BME280;33659;42.672;23.354;2023-05-24T04:30:58;85104.38;;;17.59;60.89
11692;BME280;33659;42.672;23.354;2023-05-24T04:33:25;85099.00;;;17.57;61.15
11692;BME280;33659;42.672;23.354;2023-05-24T04:35:54;85103.09;;;17.60;60.91
11692;BME280;33659;42.672;23.354;2023-05-24T04:38:21;85100.13;;;17.52;61.26
11692;BME280;33659;42.672;23.354;2023-05-24T04:40:49;85102.09;;;17.52;61.19
11692;BME280;33659;42.672;23.354;2023-05-24T04:43:15;85109.75;;;17.46;61.48
11692;BME280;33659;42.672;23.354;2023-05-24T04:45:42;85107.84;;;17.48;61.36
11692;BME280;33659;42.672;23.354;2023-05-24T04:48:09;85112.44;;;17.48;61.33
11692;BME280;33659;42.672;23.354;2023-05-24T04:50:35;85108.03;;;17.52;61.14
11692;BME280;33659;42.672;23.354;2023-05-24T04:53:04;85108.53;;;17.49;60.73
11692;BME280;33659;42.672;23.354;2023-05-24T04:55:30;85105.41;;;17.37;61.26
11692;BME280;33659;42.672;23.354;2023-05-24T04:57:58;85107.78;;;17.30;61.48
11692;BME280;33659;42.672;23.354;2023-05-24T05:00:24;85107.09;;;17.30;61.16
11692;BME280;33659;42.672;23.354;2023-05-24T05:02:51;85101.66;;;17.26;60.54
11692;BME280;33659;42.672;23.354;2023-05-24T05:05:18;85095.38;;;17.17;60.75
11692;BME280;33659;42.672;23.354;2023-05-24T05:07:45;85096.47;;;17.12;60.72
11692;BME280;33659;42.672;23.354;2023-05-24T05:10:13;85092.41;;;17.09;60.87
11692;BME280;33659;42.672;23.354;2023-05-24T05:12:40;85092.75;;;17.01;60.81
11692;BME280;33659;42.672;23.354;2023-05-24T05:15:08;85090.44;;;16.94;61.26
11692;BME280;33659;42.672;23.354;2023-05-24T05:17:35;85074.22;;;16.84;61.57
11692;BME280;33659;42.672;23.354;2023-05-24T05:20:04;85098.28;;;17.08;61.36
11692;BME280;33659;42.672;23.354;2023-05-24T05:22:31;85107.50;;;17.24;60.35
11692;BME280;33659;42.672;23.354;2023-05-24T05:24:58;85104.47;;;17.30;59.65
11692;BME280;33659;42.672;23.354;2023-05-24T05:27:28;85106.41;;;17.29;59.99
11692;BME280;33659;42.672;23.354;2023-05-24T05:29:54;85117.63;;;17.46;59.48
11692;BME280;33659;42.672;23.354;2023-05-24T05:32:21;85130.09;;;17.61;59.04
11692;BME280;33659;42.672;23.354;2023-05-24T05:34:48;85129.44;;;17.76;58.71
11692;BME280;33659;42.672;23.354;2023-05-24T05:37:15;85137.59;;;17.82;58.53
11692;BME280;33659;42.672;23.354;2023-05-24T05:39:41;85140.47;;;17.89;58.17
11692;BME280;33659;42.672;23.354;2023-05-24T05:42:08;85136.56;;;17.90;58.28
11692;BME280;33659;42.672;23.354;2023-05-24T05:44:36;85147.50;;;18.00;58.42
11692;BME280;33659;42.672;23.354;2023-05-24T05:47:03;85149.19;;;18.09;57.75
11692;BME280;33659;42.672;23.354;2023-05-24T05:49:31;85143.41;;;18.12;57.55
11692;BME280;33659;42.672;23.354;2023-05-24T05:52:00;85147.16;;;18.07;57.08
11692;BME280;33659;42.672;23.354;2023-05-24T05:54:27;85142.06;;;17.96;57.11
11692;BME280;33659;42.672;23.354;2023-05-24T05:56:55;85138.06;;;17.95;57.60
11692;BME280;33659;42.672;23.354;2023-05-24T05:59:22;85146.84;;;17.99;57.65
11692;BME280;33659;42.672;23.354;2023-05-24T06:01:50;85145.44;;;18.14;57.58
11692;BME280;33659;42.672;23.354;2023-05-24T06:04:17;85161.22;;;18.30;57.50
11692;BME280;33659;42.672;23.354;2023-05-24T06:06:44;85173.75;;;18.47;58.04
11692;BME280;33659;42.672;23.354;2023-05-24T06:09:14;85183.50;;;18.60;57.91
11692;BME280;33659;42.672;23.354;2023-05-24T06:11:40;85186.13;;;18.76;57.27
11692;BME280;33659;42.672;23.354;2023-05-24T06:14:09;85198.66;;;18.93;57.44
11692;BME280;33659;42.672;23.354;2023-05-24T06:16:36;85198.56;;;19.09;56.79
11692;BME280;33659;42.672;23.354;2023-05-24T06:19:07;85194.94;;;19.18;56.62
11692;BME280;33659;42.672;23.354;2023-05-24T06:21:34;85215.47;;;19.38;56.07
11692;BME280;33659;42.672;23.354;2023-05-24T06:24:01;85222.53;;;19.51;55.41
11692;BME280;33659;42.672;23.354;2023-05-24T06:26:28;85219.91;;;19.51;55.24
11692;BME280;33659;42.672;23.354;2023-05-24T06:28:55;85225.34;;;19.55;54.96
11692;BME280;33659;42.672;23.354;2023-05-24T06:31:22;85252.63;;;19.60;54.50
11692;BME280;33659;42.672;23.354;2023-05-24T06:33:48;85225.88;;;19.69;54.71
11692;BME280;33659;42.672;23.354;2023-05-24T06:36:17;85225.47;;;19.77;54.72
11692;BME280;33659;42.672;23.354;2023-05-24T06:38:43;85223.75;;;19.84;54.79
11692;BME280;33659;42.672;23.354;2023-05-24T06:41:10;85230.53;;;19.89;54.40
11692;BME280;33659;42.672;23.354;2023-05-24T06:43:37;85240.16;;;20.00;54.18
11692;BME280;33659;42.672;23.354;2023-05-24T06:46:05;85231.78;;;20.06;53.91
11692;BME280;33659;42.672;23.354;2023-05-24T06:48:31;85241.13;;;20.09;53.91
11692;BME280;33659;42.672;23.354;2023-05-24T06:50:58;85229.28;;;20.10;54.31
11692;BME280;33659;42.672;23.354;2023-05-24T06:53:26;85242.72;;;20.16;54.26
11692;BME280;33659;42.672;23.354;2023-05-24T06:55:53;85241.84;;;20.29;53.79
11692;BME280;33659;42.672;23.354;2023-05-24T06:58:20;85244.06;;;20.37;53.71
11692;BME280;33659;42.672;23.354;2023-05-24T07:00:47;85247.50;;;20.41;53.66
11692;BME280;33659;42.672;23.354;2023-05-24T07:03:14;85248.91;;;20.42;54.03
11692;BME280;33659;42.672;23.354;2023-05-24T07:05:41;85250.25;;;20.43;53.93
11692;BME280;33659;42.672;23.354;2023-05-24T07:08:08;85238.09;;;20.36;53.58
11692;BME280;33659;42.672;23.354;2023-05-24T07:10:36;85237.44;;;20.36;53.83
11692;BME280;33659;42.672;23.354;2023-05-24T07:13:03;85242.22;;;20.41;53.71
11692;BME280;33659;42.672;23.354;2023-05-24T07:15:29;85252.50;;;20.51;54.64
11692;BME280;33659;42.672;23.354;2023-05-24T07:17:56;85244.16;;;20.59;53.81
11692;BME280;33659;42.672;23.354;2023-05-24T07:20:23;85259.09;;;20.70;54.58
11692;BME280;33659;42.672;23.354;2023-05-24T07:22:49;85259.41;;;20.80;53.82
11692;BME280;33659;42.672;23.354;2023-05-24T07:25:17;85248.75;;;20.78;53.13
11692;BME280;33659;42.672;23.354;2023-05-24T07:27:45;85258.91;;;20.86;53.53
11692;BME280;33659;42.672;23.354;2023-05-24T07:30:12;85254.19;;;20.82;53.32
11692;BME280;33659;42.672;23.354;2023-05-24T07:32:39;85257.50;;;20.82;52.36
11692;BME280;33659;42.672;23.354;2023-05-24T07:35:06;85252.84;;;20.81;52.51
11692;BME280;33659;42.672;23.354;2023-05-24T07:37:33;85256.75;;;20.80;52.41
11692;BME280;33659;42.672;23.354;2023-05-24T07:40:00;85242.16;;;20.79;51.63
11692;BME280;33659;42.672;23.354;2023-05-24T07:42:27;85252.41;;;20.89;51.43
11692;BME280;33659;42.672;23.354;2023-05-24T07:44:56;85257.66;;;20.87;51.84
11692;BME280;33659;42.672;23.354;2023-05-24T07:47:22;85250.19;;;20.81;52.41
11692;BME280;33659;42.672;23.354;2023-05-24T07:49:49;85248.47;;;20.90;51.76
11692;BME280;33659;42.672;23.354;2023-05-24T07:52:16;85253.28;;;20.95;51.44
11692;BME280;33659;42.672;23.354;2023-05-24T07:54:43;85242.63;;;20.93;51.50
11692;BME280;33659;42.672;23.354;2023-05-24T07:57:09;85239.84;;;20.89;51.89
11692;BME280;33659;42.672;23.354;2023-05-24T07:59:36;85241.34;;;20.94;51.72
11692;BME280;33659;42.672;23.354;2023-05-24T08:02:05;85245.34;;;20.95;51.15
11692;BME280;33659;42.672;23.354;2023-05-24T08:04:32;85247.38;;;20.97;50.87
11692;BME280;33659;42.672;23.354;2023-05-24T08:06:59;85238.94;;;21.02;50.27
11692;BME280;33659;42.672;23.354;2023-05-24T08:09:27;85232.31;;;21.01;49.84
11692;BME280;33659;42.672;23.354;2023-05-24T08:11:58;85238.41;;;21.06;50.03
11692;BME280;33659;42.672;23.354;2023-05-24T08:14:24;85239.31;;;21.15;50.26
11692;BME280;33659;42.672;23.354;2023-05-24T08:16:51;85243.56;;;21.24;49.36
11692;BME280;33659;42.672;23.354;2023-05-24T08:19:19;85241.75;;;21.28;47.49
11692;BME280;33659;42.672;23.354;2023-05-24T08:21:46;85245.22;;;21.33;47.56
11692;BME280;33659;42.672;23.354;2023-05-24T08:24:14;85232.50;;;21.29;47.46
11692;BME280;33659;42.672;23.354;2023-05-24T08:26:42;85229.38;;;21.35;44.83
11692;BME280;33659;42.672;23.354;2023-05-24T08:29:09;85230.72;;;21.36;46.04
11692;BME280;33659;42.672;23.354;2023-05-24T08:31:36;85230.84;;;21.40;46.92
11692;BME280;33659;42.672;23.354;2023-05-24T08:34:03;85225.59;;;21.42;46.30
11692;BME280;33659;42.672;23.354;2023-05-24T08:36:31;85231.03;;;21.46;46.91
11692;BME280;33659;42.672;23.354;2023-05-24T08:38:58;85229.28;;;21.55;46.96
11692;BME280;33659;42.672;23.354;2023-05-24T08:41:25;85218.94;;;21.63;46.57
11692;BME280;33659;42.672;23.354;2023-05-24T08:43:52;85205.50;;;21.57;41.43
11692;BME280;33659;42.672;23.354;2023-05-24T08:46:22;85199.72;;;21.41;42.54
11692;BME280;33659;42.672;23.354;2023-05-24T08:48:50;85175.13;;;21.16;43.26
11692;BME280;33659;42.672;23.354;2023-05-24T08:51:17;85185.25;;;21.22;43.45
11692;BME280;33659;42.672;23.354;2023-05-24T08:53:46;85188.06;;;21.28;42.25
11692;BME280;33659;42.672;23.354;2023-05-24T08:56:16;85188.22;;;21.32;41.36
11692;BME280;33659;42.672;23.354;2023-05-24T08:58:43;85196.41;;;21.40;41.11
11692;BME280;33659;42.672;23.354;2023-05-24T09:01:12;85188.75;;;21.50;39.73
11692;BME280;33659;42.672;23.354;2023-05-24T09:03:39;85192.75;;;21.51;39.69
11692;BME280;33659;42.672;23.354;2023-05-24T09:06:07;85194.22;;;21.56;39.82
11692;BME280;33659;42.672;23.354;2023-05-24T09:08:35;85197.84;;;21.67;40.18
11692;BME280;33659;42.672;23.354;2023-05-24T09:11:04;85197.38;;;21.75;40.18
11692;BME280;33659;42.672;23.354;2023-05-24T09:13:33;85202.38;;;21.86;39.64
11692;BME280;33659;42.672;23.354;2023-05-24T09:16:00;85225.72;;;21.92;39.97
11692;BME280;33659;42.672;23.354;2023-05-24T09:18:27;85236.59;;;22.02;40.05
11692;BME280;33659;42.672;23.354;2023-05-24T09:20:54;85244.22;;;22.12;39.37
11692;BME280;33659;42.672;23.354;2023-05-24T09:23:21;85249.56;;;22.14;39.11
11692;BME280;33659;42.672;23.354;2023-05-24T09:25:49;85243.53;;;22.11;38.48
11692;BME280;33659;42.672;23.354;2023-05-24T09:28:18;85229.91;;;21.99;39.02
11692;BME280;33659;42.672;23.354;2023-05-24T09:30:56;85225.22;;;21.98;39.34
11692;BME280;33659;42.672;23.354;2023-05-24T09:33:27;85195.47;;;22.01;39.44
11692;BME280;33659;42.672;23.354;2023-05-24T09:35:56;85193.13;;;22.11;37.87
11692;BME280;33659;42.672;23.354;2023-05-24T09:38:23;85196.03;;;22.22;37.39
11692;BME280;33659;42.672;23.354;2023-05-24T09:40:58;85200.31;;;22.33;37.14
11692;BME280;33659;42.672;23.354;2023-05-24T09:43:26;85195.13;;;22.37;36.59
11692;BME280;33659;42.672;23.354;2023-05-24T09:45:54;85208.56;;;22.43;36.41
11692;BME280;33659;42.672;23.354;2023-05-24T09:48:22;85092.53;;;22.48;36.31
11692;BME280;33659;42.672;23.354;2023-05-24T09:50:58;85095.41;;;22.56;37.03
11692;BME280;33659;42.672;23.354;2023-05-24T09:53:25;85093.50;;;22.60;37.61
11692;BME280;33659;42.672;23.354;2023-05-24T09:55:53;85094.28;;;22.65;38.26
11692;BME280;33659;42.672;23.354;2023-05-24T09:58:21;85079.97;;;22.48;37.95
11692;BME280;33659;42.672;23.354;2023-05-24T10:00:49;85084.84;;;22.60;38.39
11692;BME280;33659;42.672;23.354;2023-05-24T10:03:15;85098.28;;;22.66;38.44
11692;BME280;33659;42.672;23.354;2023-05-24T10:05:44;85088.44;;;22.70;38.54
11692;BME280;33659;42.672;23.354;2023-05-24T10:08:11;85086.03;;;22.81;39.36
11692;BME280;33659;42.672;23.354;2023-05-24T10:10:38;85092.75;;;22.86;38.33
11692;BME280;33659;42.672;23.354;2023-05-24T10:13:05;85093.56;;;22.90;38.00
11692;BME280;33659;42.672;23.354;2023-05-24T10:15:32;85095.66;;;22.94;38.04
11692;BME280;33659;42.672;23.354;2023-05-24T10:18:00;85099.81;;;23.03;37.83
11692;BME280;33659;42.672;23.354;2023-05-24T10:20:32;85093.34;;;23.10;37.70
11692;BME280;33659;42.672;23.354;2023-05-24T10:23:02;85098.06;;;23.14;36.31
11692;BME280;33659;42.672;23.354;2023-05-24T10:25:32;85093.19;;;23.04;35.28
11692;BME280;33659;42.672;23.354;2023-05-24T10:28:02;85089.56;;;22.89;35.97
11692;BME280;33659;42.672;23.354;2023-05-24T10:30:34;85072.16;;;22.84;36.14
11692;BME280;33659;42.672;23.354;2023-05-24T10:33:05;85084.25;;;22.89;35.56
11692;BME280;33659;42.672;23.354;2023-05-24T10:35:34;85079.75;;;22.96;36.30
11692;BME280;33659;42.672;23.354;2023-05-24T10:38:04;85085.88;;;23.03;35.98
11692;BME280;33659;42.672;23.354;2023-05-24T10:40:32;85054.41;;;22.91;36.32
11692;BME280;33659;42.672;23.354;2023-05-24T10:43:03;85068.75;;;23.10;35.74
11692;BME280;33659;42.672;23.354;2023-05-24T10:45:31;85074.22;;;23.18;36.39
11692;BME280;33659;42.672;23.354;2023-05-24T10:48:38;85069.84;;;23.31;36.12
11692;BME280;33659;42.672;23.354;2023-05-24T10:51:30;84975.13;;;23.45;35.38
11692;BME280;33659;42.672;23.354;2023-05-24T10:54:17;84968.41;;;23.42;34.20
11692;BME280;33659;42.672;23.354;2023-05-24T10:56:45;84962.25;;;23.32;34.70
11692;BME280;33659;42.672;23.354;2023-05-24T10:59:32;84954.34;;;23.36;35.21
11692;BME280;33659;42.672;23.354;2023-05-24T11:02:05;84958.50;;;23.45;34.92
11692;BME280;33659;42.672;23.354;2023-05-24T11:04:38;84975.50;;;23.64;34.17
11692;BME280;33659;42.672;23.354;2023-05-24T11:07:08;84969.03;;;23.75;34.61
11692;BME280;33659;42.672;23.354;2023-05-24T11:09:36;84973.78;;;23.81;34.39
11692;BME280;33659;42.672;23.354;2023-05-24T11:12:06;84977.34;;;23.93;33.89
11692;BME280;33659;42.672;23.354;2023-05-24T11:14:35;84985.53;;;24.05;36.58
11692;BME280;33659;42.672;23.354;2023-05-24T11:17:06;84977.06;;;24.15;34.37
11692;BME280;33659;42.672;23.354;2023-05-24T11:19:33;84989.88;;;24.27;33.74
11692;BME280;33659;42.672;23.354;2023-05-24T11:22:05;84993.31;;;24.34;33.61
11692;BME280;33659;42.672;23.354;2023-05-24T11:24:32;84989.50;;;24.45;33.79
11692;BME280;33659;42.672;23.354;2023-05-24T11:27:00;84989.69;;;24.55;33.38
11692;BME280;33659;42.672;23.354;2023-05-24T11:29:28;84997.81;;;24.65;33.09
11692;BME280;33659;42.672;23.354;2023-05-24T11:31:57;85002.72;;;24.81;33.41
11692;BME280;33659;42.672;23.354;2023-05-24T11:34:29;85002.84;;;24.91;33.19
11692;BME280;33659;42.672;23.354;2023-05-24T11:36:56;85006.34;;;25.02;33.16
11692;BME280;33659;42.672;23.354;2023-05-24T11:39:28;84989.50;;;24.87;32.86
11692;BME280;33659;42.672;23.354;2023-05-24T11:41:55;85003.00;;;25.01;32.66
11692;BME280;33659;42.672;23.354;2023-05-24T11:44:22;85006.31;;;25.00;32.04
11692;BME280;33659;42.672;23.354;2023-05-24T11:46:56;85001.19;;;25.12;32.11
11692;BME280;33659;42.672;23.354;2023-05-24T11:49:23;84984.47;;;25.07;32.09
11692;BME280;33659;42.672;23.354;2023-05-24T11:51:52;85004.13;;;25.34;32.41
11692;BME280;33659;42.672;23.354;2023-05-24T11:54:20;85004.94;;;25.47;32.17
11692;BME280;33659;42.672;23.354;2023-05-24T11:56:49;85038.47;;;25.62;32.16
11692;BME280;33659;42.672;23.354;2023-05-24T11:59:21;85044.56;;;25.69;31.83
11692;BME280;33659;42.672;23.354;2023-05-24T12:01:48;85043.97;;;25.73;32.19
11692;BME280;33659;42.672;23.354;2023-05-24T12:04:15;85005.91;;;25.72;31.88
11692;BME280;33659;42.672;23.354;2023-05-24T12:06:42;85035.91;;;25.71;31.93
11692;BME280;33659;42.672;23.354;2023-05-24T12:09:11;85008.69;;;25.78;31.50
11692;BME280;33659;42.672;23.354;2023-05-24T12:11:39;85008.75;;;25.84;31.47
11692;BME280;33659;42.672;23.354;2023-05-24T12:14:11;85011.41;;;25.84;31.63
11692;BME280;33659;42.672;23.354;2023-05-24T12:16:38;85013.50;;;25.90;31.44
11692;BME280;33659;42.672;23.354;2023-05-24T12:19:04;85002.16;;;25.89;31.46
11692;BME280;33659;42.672;23.354;2023-05-24T12:21:32;85005.50;;;25.94;32.37
11692;BME280;33659;42.672;23.354;2023-05-24T12:24:10;85010.22;;;25.98;31.99
11692;BME280;33659;42.672;23.354;2023-05-24T12:26:39;84997.56;;;25.98;32.14
11692;BME280;33659;42.672;23.354;2023-05-24T12:29:08;85005.03;;;26.12;31.12
11692;BME280;33659;42.672;23.354;2023-05-24T12:31:36;84998.41;;;26.17;31.18
11692;BME280;33659;42.672;23.354;2023-05-24T12:34:02;85003.88;;;26.29;31.69
11692;BME280;33659;42.672;23.354;2023-05-24T12:36:31;85010.00;;;26.40;31.60
11692;BME280;33659;42.672;23.354;2023-05-24T12:39:04;84998.59;;;26.35;31.54
11692;BME280;33659;42.672;23.354;2023-05-24T12:41:31;84991.88;;;26.32;32.21
11692;BME280;33659;42.672;23.354;2023-05-24T12:43:58;84991.88;;;26.32;31.79
11692;BME280;33659;42.672;23.354;2023-05-24T12:46:26;84993.34;;;26.41;32.18
11692;BME280;33659;42.672;23.354;2023-05-24T12:48:53;84988.66;;;26.44;31.97
11692;BME280;33659;42.672;23.354;2023-05-24T12:51:20;84986.66;;;26.42;31.05
11692;BME280;33659;42.672;23.354;2023-05-24T12:53:46;84984.00;;;26.44;31.25
11692;BME280;33659;42.672;23.354;2023-05-24T12:56:13;84988.00;;;26.43;31.05